sensor_id;sensor_type;location;lat;lon;timestamp;P1;durP1;ratioP1;P2;durP2;ratioP2
57726;SDS011;43568;43.180;-0.028;2022-11-20T00:01:15;18.35;;;11.57;;
57726;SDS011;43568;43.180;-0.028;2022-11-20T00:03:41;11.68;;;10.45;;
57726;SDS011;43568;43.180;-0.028;2022-11-20T00:06:09;13.15;;;10.25;;
57726;SDS011;43568;43.180;-0.028;2022-11-20T00:08:35;12.88;;;9.27;;
57726;SDS011;43568;43.180;-0.028;2022-11-20T00:11:23;14.23;;;12.20;;
57726;SDS011;43568;43.180;-0.028;2022-11-20T00:13:49;14.70;;;11.63;;
57726;SDS011;43568;43.180;-0.028;2022-11-20T00:16:17;13.05;;;11.30;;
57726;SDS011;43568;43.180;-0.028;2022-11-20T00:18:43;12.77;;;10.27;;
57726;SDS011;43568;43.180;-0.028;2022-11-20T00:21:10;11.40;;;9.13;;
57726;SDS011;43568;43.180;-0.028;2022-11-20T00:23:37;9.17;;;8.27;;
57726;SDS011;43568;43.180;-0.028;2022-11-20T00:26:03;10.73;;;8.80;;
57726;SDS011;43568;43.180;-0.028;2022-11-20T00:28:30;9.63;;;8.73;;
57726;SDS011;43568;43.180;-0.028;2022-11-20T00:31:06;9.43;;;8.05;;
57726;SDS011;43568;43.180;-0.028;2022-11-20T00:33:33;9.48;;;8.45;;
57726;SDS011;43568;43.180;-0.028;2022-11-20T00:36:05;9.57;;;8.43;;
57726;SDS011;43568;43.180;-0.028;2022-11-20T00:38:32;11.50;;;9.30;;
57726;SDS011;43568;43.180;-0.028;2022-11-20T00:40:59;12.23;;;8.55;;
57726;SDS011;43568;43.180;-0.028;2022-11-20T00:43:25;9.20;;;7.78;;
57726;SDS011;43568;43.180;-0.028;2022-11-20T00:48:24;8.60;;;7.20;;
57726;SDS011;43568;43.180;-0.028;2022-11-20T00:50:50;7.47;;;6.72;;
57726;SDS011;43568;43.180;-0.028;2022-11-20T00:53:16;6.47;;;5.97;;
57726;SDS011;43568;43.180;-0.028;2022-11-20T00:55:42;7.13;;;6.53;;
57726;SDS011;43568;43.180;-0.028;2022-11-20T00:58:08;9.80;;;8.45;;
57726;SDS011;43568;43.180;-0.028;2022-11-20T01:00:34;11.35;;;9.45;;
57726;SDS011;43568;43.180;-0.028;2022-11-20T01:03:00;8.80;;;8.00;;
57726;SDS011;43568;43.180;-0.028;2022-11-20T01:05:26;9.68;;;7.75;;
57726;SDS011;43568;43.180;-0.028;2022-11-20T01:07:52;8.45;;;7.75;;
57726;SDS011;43568;43.180;-0.028;2022-11-20T01:10:18;10.30;;;9.10;;
57726;SDS011;43568;43.180;-0.028;2022-11-20T01:12:44;15.38;;;10.15;;
57726;SDS011;43568;43.180;-0.028;2022-11-20T01:15:30;22.00;;;13.32;;
57726;SDS011;43568;43.180;-0.028;2022-11-20T01:17:56;28.75;;;16.98;;
57726;SDS011;43568;43.180;-0.028;2022-11-20T01:20:22;43.72;;;21.70;;
57726;SDS011;43568;43.180;-0.028;2022-11-20T01:22:48;33.97;;;17.52;;
57726;SDS011;43568;43.180;-0.028;2022-11-20T01:25:14;18.42;;;12.25;;
57726;SDS011;43568;43.180;-0.028;2022-11-20T01:27:40;16.27;;;11.48;;
57726;SDS011;43568;43.180;-0.028;2022-11-20T01:30:06;10.75;;;9.68;;
57726;SDS011;43568;43.180;-0.028;2022-11-20T01:32:32;10.65;;;9.18;;
57726;SDS011;43568;43.180;-0.028;2022-11-20T01:34:58;11.65;;;9.48;;
57726;SDS011;43568;43.180;-0.028;2022-11-20T01:37:24;11.68;;;9.82;;
57726;SDS011;43568;43.180;-0.028;2022-11-20T01:39:50;11.55;;;9.48;;
57726;SDS011;43568;43.180;-0.028;2022-11-20T01:42:16;11.63;;;9.45;;
57726;SDS011;43568;43.180;-0.028;2022-11-20T01:45:01;9.57;;;8.10;;
57726;SDS011;43568;43.180;-0.028;2022-11-20T01:49:58;9.38;;;7.32;;
57726;SDS011;43568;43.180;-0.028;2022-11-20T01:52:30;8.25;;;7.43;;
57726;SDS011;43568;43.180;-0.028;2022-11-20T01:55:00;7.65;;;7.05;;
57726;SDS011;43568;43.180;-0.028;2022-11-20T01:57:26;8.25;;;7.30;;
57726;SDS011;43568;43.180;-0.028;2022-11-20T01:59:54;7.32;;;6.65;;
57726;SDS011;43568;43.180;-0.028;2022-11-20T02:02:21;6.90;;;6.30;;
57726;SDS011;43568;43.180;-0.028;2022-11-20T02:04:48;7.35;;;6.65;;
57726;SDS011;43568;43.180;-0.028;2022-11-20T02:07:15;7.25;;;6.72;;
57726;SDS011;43568;43.180;-0.028;2022-11-20T02:09:41;6.15;;;5.85;;
57726;SDS011;43568;43.180;-0.028;2022-11-20T02:12:07;7.63;;;6.50;;
57726;SDS011;43568;43.180;-0.028;2022-11-20T02:14:53;7.22;;;6.53;;
57726;SDS011;43568;43.180;-0.028;2022-11-20T02:17:19;6.63;;;5.85;;
57726;SDS011;43568;43.180;-0.028;2022-11-20T02:19:45;6.40;;;6.00;;
57726;SDS011;43568;43.180;-0.028;2022-11-20T02:22:17;6.32;;;5.72;;
57726;SDS011;43568;43.180;-0.028;2022-11-20T02:24:45;5.57;;;5.20;;
57726;SDS011;43568;43.180;-0.028;2022-11-20T02:27:12;5.78;;;5.38;;
57726;SDS011;43568;43.180;-0.028;2022-11-20T02:29:40;6.20;;;5.80;;
57726;SDS011;43568;43.180;-0.028;2022-11-20T02:32:17;6.68;;;6.20;;
57726;SDS011;43568;43.180;-0.028;2022-11-20T02:34:44;11.15;;;7.65;;
57726;SDS011;43568;43.180;-0.028;2022-11-20T02:37:10;8.60;;;6.32;;
57726;SDS011;43568;43.180;-0.028;2022-11-20T02:39:36;21.15;;;9.93;;
57726;SDS011;43568;43.180;-0.028;2022-11-20T02:42:02;50.40;;;20.95;;
57726;SDS011;43568;43.180;-0.028;2022-11-20T02:44:28;33.63;;;14.45;;
57726;SDS011;43568;43.180;-0.028;2022-11-20T02:46:56;19.30;;;8.85;;
57726;SDS011;43568;43.180;-0.028;2022-11-20T02:49:23;7.30;;;6.55;;
57726;SDS011;43568;43.180;-0.028;2022-11-20T02:51:49;7.07;;;6.38;;
57726;SDS011;43568;43.180;-0.028;2022-11-20T02:54:15;6.47;;;5.88;;
57726;SDS011;43568;43.180;-0.028;2022-11-20T02:56:41;6.53;;;6.03;;
57726;SDS011;43568;43.180;-0.028;2022-11-20T02:59:08;6.22;;;5.68;;
57726;SDS011;43568;43.180;-0.028;2022-11-20T03:01:34;5.57;;;5.10;;
57726;SDS011;43568;43.180;-0.028;2022-11-20T03:04:00;5.50;;;5.20;;
57726;SDS011;43568;43.180;-0.028;2022-11-20T03:06:26;5.43;;;5.03;;
57726;SDS011;43568;43.180;-0.028;2022-11-20T03:08:52;5.72;;;5.35;;
57726;SDS011;43568;43.180;-0.028;2022-11-20T03:11:18;5.60;;;5.25;;
57726;SDS011;43568;43.180;-0.028;2022-11-20T03:13:44;5.82;;;5.47;;
57726;SDS011;43568;43.180;-0.028;2022-11-20T03:16:11;5.70;;;5.40;;
57726;SDS011;43568;43.180;-0.028;2022-11-20T03:18:38;5.63;;;5.13;;
57726;SDS011;43568;43.180;-0.028;2022-11-20T03:21:04;4.90;;;4.70;;
57726;SDS011;43568;43.180;-0.028;2022-11-20T03:23:31;5.30;;;4.90;;
57726;SDS011;43568;43.180;-0.028;2022-11-20T03:26:39;5.85;;;5.07;;
57726;SDS011;43568;43.180;-0.028;2022-11-20T03:28:47;5.40;;;5.10;;
57726;SDS011;43568;43.180;-0.028;2022-11-20T03:31:13;5.10;;;4.70;;
57726;SDS011;43568;43.180;-0.028;2022-11-20T03:33:40;5.18;;;4.82;;
57726;SDS011;43568;43.180;-0.028;2022-11-20T03:36:07;5.57;;;5.28;;
57726;SDS011;43568;43.180;-0.028;2022-11-20T03:38:34;5.75;;;5.35;;
57726;SDS011;43568;43.180;-0.028;2022-11-20T03:41:04;5.30;;;5.00;;
57726;SDS011;43568;43.180;-0.028;2022-11-20T03:43:30;5.00;;;4.80;;
57726;SDS011;43568;43.180;-0.028;2022-11-20T03:45:57;5.00;;;4.70;;
57726;SDS011;43568;43.180;-0.028;2022-11-20T03:48:23;5.00;;;4.80;;
57726;SDS011;43568;43.180;-0.028;2022-11-20T03:50:49;5.35;;;5.03;;
57726;SDS011;43568;43.180;-0.028;2022-11-20T03:53:15;4.80;;;4.60;;
57726;SDS011;43568;43.180;-0.028;2022-11-20T03:55:41;5.28;;;4.97;;
57726;SDS011;43568;43.180;-0.028;2022-11-20T03:58:07;4.90;;;4.60;;
57726;SDS011;43568;43.180;-0.028;2022-11-20T04:00:34;5.22;;;4.93;;
57726;SDS011;43568;43.180;-0.028;2022-11-20T04:03:00;4.90;;;4.70;;
57726;SDS011;43568;43.180;-0.028;2022-11-20T04:05:26;5.28;;;4.97;;
57726;SDS011;43568;43.180;-0.028;2022-11-20T04:07:52;5.22;;;4.85;;
57726;SDS011;43568;43.180;-0.028;2022-11-20T04:10:18;5.15;;;4.95;;
57726;SDS011;43568;43.180;-0.028;2022-11-20T04:12:45;4.90;;;4.70;;
57726;SDS011;43568;43.180;-0.028;2022-11-20T04:15:11;5.18;;;4.88;;
57726;SDS011;43568;43.180;-0.028;2022-11-20T04:17:37;4.93;;;4.72;;
57726;SDS011;43568;43.180;-0.028;2022-11-20T04:20:03;4.78;;;4.57;;
57726;SDS011;43568;43.180;-0.028;2022-11-20T04:22:29;5.22;;;4.93;;
57726;SDS011;43568;43.180;-0.028;2022-11-20T04:24:55;5.50;;;5.20;;
57726;SDS011;43568;43.180;-0.028;2022-11-20T04:27:21;5.32;;;5.03;;
57726;SDS011;43568;43.180;-0.028;2022-11-20T04:29:47;5.60;;;5.30;;
57726;SDS011;43568;43.180;-0.028;2022-11-20T04:32:13;5.38;;;4.97;;
57726;SDS011;43568;43.180;-0.028;2022-11-20T04:34:39;5.10;;;4.90;;
57726;SDS011;43568;43.180;-0.028;2022-11-20T04:37:05;5.32;;;4.93;;
57726;SDS011;43568;43.180;-0.028;2022-11-20T04:39:31;5.13;;;4.75;;
57726;SDS011;43568;43.180;-0.028;2022-11-20T04:41:57;5.25;;;4.95;;
57726;SDS011;43568;43.180;-0.028;2022-11-20T04:44:42;5.35;;;4.82;;
57726;SDS011;43568;43.180;-0.028;2022-11-20T04:47:08;4.72;;;4.53;;
57726;SDS011;43568;43.180;-0.028;2022-11-20T04:49:34;4.80;;;4.50;;
57726;SDS011;43568;43.180;-0.028;2022-11-20T04:52:00;4.90;;;4.60;;
57726;SDS011;43568;43.180;-0.028;2022-11-20T04:54:26;4.90;;;4.70;;
57726;SDS011;43568;43.180;-0.028;2022-11-20T04:56:52;4.80;;;4.60;;
57726;SDS011;43568;43.180;-0.028;2022-11-20T04:59:18;4.65;;;4.38;;
57726;SDS011;43568;43.180;-0.028;2022-11-20T05:01:44;5.80;;;5.45;;
57726;SDS011;43568;43.180;-0.028;2022-11-20T05:04:10;5.38;;;5.05;;
57726;SDS011;43568;43.180;-0.028;2022-11-20T05:06:36;4.90;;;4.50;;
57726;SDS011;43568;43.180;-0.028;2022-11-20T05:09:02;4.60;;;4.40;;
57726;SDS011;43568;43.180;-0.028;2022-11-20T05:11:28;4.78;;;4.38;;
57726;SDS011;43568;43.180;-0.028;2022-11-20T05:13:55;4.90;;;4.60;;
57726;SDS011;43568;43.180;-0.028;2022-11-20T05:16:21;4.88;;;4.57;;
57726;SDS011;43568;43.180;-0.028;2022-11-20T05:18:48;4.45;;;4.25;;
57726;SDS011;43568;43.180;-0.028;2022-11-20T05:21:14;4.70;;;4.50;;
57726;SDS011;43568;43.180;-0.028;2022-11-20T05:23:41;4.40;;;4.20;;
57726;SDS011;43568;43.180;-0.028;2022-11-20T05:26:08;4.60;;;4.40;;
57726;SDS011;43568;43.180;-0.028;2022-11-20T05:28:37;6.00;;;5.70;;
57726;SDS011;43568;43.180;-0.028;2022-11-20T05:31:07;5.70;;;5.40;;
57726;SDS011;43568;43.180;-0.028;2022-11-20T05:33:34;4.90;;;4.60;;
57726;SDS011;43568;43.180;-0.028;2022-11-20T05:36:01;5.00;;;4.70;;
57726;SDS011;43568;43.180;-0.028;2022-11-20T05:38:27;5.18;;;4.88;;
57726;SDS011;43568;43.180;-0.028;2022-11-20T05:40:53;4.80;;;4.60;;
57726;SDS011;43568;43.180;-0.028;2022-11-20T05:43:19;4.82;;;4.53;;
57726;SDS011;43568;43.180;-0.028;2022-11-20T05:45:52;4.40;;;4.20;;
57726;SDS011;43568;43.180;-0.028;2022-11-20T05:48:18;4.70;;;4.30;;
57726;SDS011;43568;43.180;-0.028;2022-11-20T05:50:44;4.80;;;4.45;;
57726;SDS011;43568;43.180;-0.028;2022-11-20T05:53:10;4.40;;;4.20;;
57726;SDS011;43568;43.180;-0.028;2022-11-20T05:55:36;4.47;;;4.28;;
57726;SDS011;43568;43.180;-0.028;2022-11-20T05:58:02;5.40;;;5.10;;
57726;SDS011;43568;43.180;-0.028;2022-11-20T06:00:28;5.45;;;5.00;;
57726;SDS011;43568;43.180;-0.028;2022-11-20T06:02:54;4.80;;;4.50;;
57726;SDS011;43568;43.180;-0.028;2022-11-20T06:05:20;4.90;;;4.60;;
57726;SDS011;43568;43.180;-0.028;2022-11-20T06:07:46;5.53;;;5.22;;
57726;SDS011;43568;43.180;-0.028;2022-11-20T06:10:12;5.53;;;5.13;;
57726;SDS011;43568;43.180;-0.028;2022-11-20T06:12:38;5.13;;;4.82;;
57726;SDS011;43568;43.180;-0.028;2022-11-20T06:15:05;4.93;;;4.70;;
57726;SDS011;43568;43.180;-0.028;2022-11-20T06:17:31;4.80;;;4.50;;
57726;SDS011;43568;43.180;-0.028;2022-11-20T06:19:57;5.13;;;4.72;;
57726;SDS011;43568;43.180;-0.028;2022-11-20T06:22:23;5.07;;;4.60;;
57726;SDS011;43568;43.180;-0.028;2022-11-20T06:24:49;5.30;;;4.78;;
57726;SDS011;43568;43.180;-0.028;2022-11-20T06:27:15;5.22;;;4.93;;
57726;SDS011;43568;43.180;-0.028;2022-11-20T06:29:41;4.82;;;4.53;;
57726;SDS011;43568;43.180;-0.028;2022-11-20T06:32:07;5.43;;;5.13;;
57726;SDS011;43568;43.180;-0.028;2022-11-20T06:34:33;5.20;;;4.80;;
57726;SDS011;43568;43.180;-0.028;2022-11-20T06:36:59;4.93;;;4.63;;
57726;SDS011;43568;43.180;-0.028;2022-11-20T06:39:25;4.70;;;4.40;;
57726;SDS011;43568;43.180;-0.028;2022-11-20T06:41:51;5.15;;;4.85;;
57726;SDS011;43568;43.180;-0.028;2022-11-20T06:44:17;4.78;;;4.40;;
57726;SDS011;43568;43.180;-0.028;2022-11-20T06:46:43;4.60;;;4.32;;
57726;SDS011;43568;43.180;-0.028;2022-11-20T06:49:09;4.65;;;4.40;;
57726;SDS011;43568;43.180;-0.028;2022-11-20T06:51:35;4.80;;;4.50;;
57726;SDS011;43568;43.180;-0.028;2022-11-20T06:54:01;5.15;;;4.85;;
57726;SDS011;43568;43.180;-0.028;2022-11-20T06:56:27;4.93;;;4.53;;
57726;SDS011;43568;43.180;-0.028;2022-11-20T06:58:53;5.47;;;4.88;;
57726;SDS011;43568;43.180;-0.028;2022-11-20T07:01:20;5.07;;;4.65;;
57726;SDS011;43568;43.180;-0.028;2022-11-20T07:03:48;5.53;;;5.03;;
57726;SDS011;43568;43.180;-0.028;2022-11-20T07:06:14;4.80;;;4.40;;
57726;SDS011;43568;43.180;-0.028;2022-11-20T07:08:40;5.82;;;4.82;;
57726;SDS011;43568;43.180;-0.028;2022-11-20T07:11:06;5.30;;;4.72;;
57726;SDS011;43568;43.180;-0.028;2022-11-20T07:13:33;6.40;;;5.57;;
57726;SDS011;43568;43.180;-0.028;2022-11-20T07:16:03;8.48;;;6.32;;
57726;SDS011;43568;43.180;-0.028;2022-11-20T07:18:29;8.10;;;6.97;;
57726;SDS011;43568;43.180;-0.028;2022-11-20T07:20:56;10.75;;;8.02;;
57726;SDS011;43568;43.180;-0.028;2022-11-20T07:23:22;8.30;;;7.40;;
57726;SDS011;43568;43.180;-0.028;2022-11-20T07:25:48;7.00;;;6.32;;
57726;SDS011;43568;43.180;-0.028;2022-11-20T07:28:14;8.13;;;6.53;;
57726;SDS011;43568;43.180;-0.028;2022-11-20T07:30:40;7.97;;;7.18;;
57726;SDS011;43568;43.180;-0.028;2022-11-20T07:33:06;10.25;;;6.35;;
57726;SDS011;43568;43.180;-0.028;2022-11-20T07:35:32;9.60;;;7.70;;
57726;SDS011;43568;43.180;-0.028;2022-11-20T07:37:58;8.15;;;7.32;;
57726;SDS011;43568;43.180;-0.028;2022-11-20T07:40:24;7.45;;;6.65;;
57726;SDS011;43568;43.180;-0.028;2022-11-20T07:42:51;7.53;;;6.90;;
57726;SDS011;43568;43.180;-0.028;2022-11-20T07:45:18;21.95;;;13.88;;
57726;SDS011;43568;43.180;-0.028;2022-11-20T07:47:44;15.98;;;11.98;;
57726;SDS011;43568;43.180;-0.028;2022-11-20T07:50:10;9.57;;;8.60;;
57726;SDS011;43568;43.180;-0.028;2022-11-20T07:52:37;11.05;;;8.75;;
57726;SDS011;43568;43.180;-0.028;2022-11-20T07:55:03;6.18;;;5.78;;
57726;SDS011;43568;43.180;-0.028;2022-11-20T07:57:29;5.80;;;5.40;;
57726;SDS011;43568;43.180;-0.028;2022-11-20T07:59:55;5.30;;;4.97;;
57726;SDS011;43568;43.180;-0.028;2022-11-20T08:02:21;6.70;;;6.20;;
57726;SDS011;43568;43.180;-0.028;2022-11-20T08:04:47;7.55;;;6.95;;
57726;SDS011;43568;43.180;-0.028;2022-11-20T08:07:14;7.47;;;6.78;;
57726;SDS011;43568;43.180;-0.028;2022-11-20T08:09:40;8.00;;;7.30;;
57726;SDS011;43568;43.180;-0.028;2022-11-20T08:12:06;6.32;;;5.72;;
57726;SDS011;43568;43.180;-0.028;2022-11-20T08:14:51;8.55;;;6.28;;
57726;SDS011;43568;43.180;-0.028;2022-11-20T08:17:17;6.10;;;5.60;;
57726;SDS011;43568;43.180;-0.028;2022-11-20T08:19:43;11.52;;;10.00;;
57726;SDS011;43568;43.180;-0.028;2022-11-20T08:22:09;7.45;;;6.85;;
57726;SDS011;43568;43.180;-0.028;2022-11-20T08:24:35;10.25;;;8.00;;
57726;SDS011;43568;43.180;-0.028;2022-11-20T08:27:01;11.38;;;8.40;;
57726;SDS011;43568;43.180;-0.028;2022-11-20T08:29:27;8.82;;;7.95;;
57726;SDS011;43568;43.180;-0.028;2022-11-20T08:31:53;8.32;;;7.63;;
57726;SDS011;43568;43.180;-0.028;2022-11-20T08:34:19;7.47;;;6.78;;
57726;SDS011;43568;43.180;-0.028;2022-11-20T08:36:45;7.07;;;6.35;;
57726;SDS011;43568;43.180;-0.028;2022-11-20T08:39:11;7.97;;;7.20;;
57726;SDS011;43568;43.180;-0.028;2022-11-20T08:41:38;14.55;;;11.00;;
57726;SDS011;43568;43.180;-0.028;2022-11-20T08:44:05;12.27;;;10.50;;
57726;SDS011;43568;43.180;-0.028;2022-11-20T08:46:33;27.48;;;20.25;;
57726;SDS011;43568;43.180;-0.028;2022-11-20T08:48:59;11.52;;;10.30;;
57726;SDS011;43568;43.180;-0.028;2022-11-20T08:51:25;9.68;;;8.70;;
57726;SDS011;43568;43.180;-0.028;2022-11-20T08:53:51;7.95;;;7.25;;
57726;SDS011;43568;43.180;-0.028;2022-11-20T08:56:17;8.07;;;7.28;;
57726;SDS011;43568;43.180;-0.028;2022-11-20T08:58:43;6.93;;;6.32;;
57726;SDS011;43568;43.180;-0.028;2022-11-20T09:01:10;6.07;;;5.65;;
57726;SDS011;43568;43.180;-0.028;2022-11-20T09:03:36;6.15;;;5.60;;
57726;SDS011;43568;43.180;-0.028;2022-11-20T09:06:04;5.00;;;4.60;;
57726;SDS011;43568;43.180;-0.028;2022-11-20T09:08:31;4.40;;;4.20;;
57726;SDS011;43568;43.180;-0.028;2022-11-20T09:10:57;3.88;;;3.67;;
57726;SDS011;43568;43.180;-0.028;2022-11-20T09:13:24;3.58;;;3.40;;
57726;SDS011;43568;43.180;-0.028;2022-11-20T09:15:54;4.20;;;4.00;;
57726;SDS011;43568;43.180;-0.028;2022-11-20T09:18:21;3.60;;;3.42;;
57726;SDS011;43568;43.180;-0.028;2022-11-20T09:20:47;3.70;;;3.40;;
57726;SDS011;43568;43.180;-0.028;2022-11-20T09:23:14;5.03;;;4.63;;
57726;SDS011;43568;43.180;-0.028;2022-11-20T09:25:40;4.60;;;4.22;;
57726;SDS011;43568;43.180;-0.028;2022-11-20T09:28:06;4.63;;;4.22;;
57726;SDS011;43568;43.180;-0.028;2022-11-20T09:30:32;4.95;;;4.55;;
57726;SDS011;43568;43.180;-0.028;2022-11-20T09:32:58;6.30;;;5.70;;
57726;SDS011;43568;43.180;-0.028;2022-11-20T09:35:24;5.10;;;4.70;;
57726;SDS011;43568;43.180;-0.028;2022-11-20T09:37:50;4.90;;;4.50;;
57726;SDS011;43568;43.180;-0.028;2022-11-20T09:40:21;5.00;;;4.60;;
57726;SDS011;43568;43.180;-0.028;2022-11-20T09:42:57;4.85;;;4.47;;
57726;SDS011;43568;43.180;-0.028;2022-11-20T09:45:47;4.20;;;3.90;;
57726;SDS011;43568;43.180;-0.028;2022-11-20T09:48:28;3.83;;;3.63;;
57726;SDS011;43568;43.180;-0.028;2022-11-20T09:51:07;4.03;;;3.80;;
57726;SDS011;43568;43.180;-0.028;2022-11-20T09:53:39;3.72;;;3.42;;
57726;SDS011;43568;43.180;-0.028;2022-11-20T09:56:08;3.85;;;3.53;;
57726;SDS011;43568;43.180;-0.028;2022-11-20T09:58:38;3.75;;;3.55;;
57726;SDS011;43568;43.180;-0.028;2022-11-20T10:01:14;5.35;;;4.90;;
57726;SDS011;43568;43.180;-0.028;2022-11-20T10:03:52;4.93;;;4.63;;
57726;SDS011;43568;43.180;-0.028;2022-11-20T10:06:21;3.60;;;3.40;;
57726;SDS011;43568;43.180;-0.028;2022-11-20T10:09:32;3.97;;;3.78;;
57726;SDS011;43568;43.180;-0.028;2022-11-20T10:11:46;5.30;;;5.00;;
57726;SDS011;43568;43.180;-0.028;2022-11-20T10:19:23;3.97;;;3.72;;
57726;SDS011;43568;43.180;-0.028;2022-11-20T10:22:40;4.25;;;3.95;;
57726;SDS011;43568;43.180;-0.028;2022-11-20T10:24:53;4.50;;;4.20;;
57726;SDS011;43568;43.180;-0.028;2022-11-20T10:29:47;3.92;;;3.72;;
57726;SDS011;43568;43.180;-0.028;2022-11-20T10:32:18;5.10;;;4.70;;
57726;SDS011;43568;43.180;-0.028;2022-11-20T10:34:52;4.65;;;4.43;;
57726;SDS011;43568;43.180;-0.028;2022-11-20T10:37:24;3.95;;;3.70;;
57726;SDS011;43568;43.180;-0.028;2022-11-20T10:42:17;4.30;;;4.10;;
57726;SDS011;43568;43.180;-0.028;2022-11-20T10:44:47;3.85;;;3.65;;
57726;SDS011;43568;43.180;-0.028;2022-11-20T10:47:25;3.92;;;3.72;;
57726;SDS011;43568;43.180;-0.028;2022-11-20T10:49:53;3.90;;;3.70;;
57726;SDS011;43568;43.180;-0.028;2022-11-20T10:54:56;3.83;;;3.63;;
57726;SDS011;43568;43.180;-0.028;2022-11-20T11:00:04;3.60;;;3.40;;
57726;SDS011;43568;43.180;-0.028;2022-11-20T11:04:57;3.50;;;3.30;;
57726;SDS011;43568;43.180;-0.028;2022-11-20T11:07:25;3.95;;;3.58;;
57726;SDS011;43568;43.180;-0.028;2022-11-20T11:09:54;4.90;;;4.40;;
57726;SDS011;43568;43.180;-0.028;2022-11-20T11:12:21;4.75;;;4.18;;
57726;SDS011;43568;43.180;-0.028;2022-11-20T11:14:51;5.55;;;4.97;;
57726;SDS011;43568;43.180;-0.028;2022-11-20T11:17:22;4.05;;;3.75;;
57726;SDS011;43568;43.180;-0.028;2022-11-20T11:20:02;7.65;;;5.90;;
57726;SDS011;43568;43.180;-0.028;2022-11-20T11:22:29;3.90;;;3.60;;
57726;SDS011;43568;43.180;-0.028;2022-11-20T11:24:56;5.30;;;3.90;;
57726;SDS011;43568;43.180;-0.028;2022-11-20T11:27:22;4.57;;;4.22;;
57726;SDS011;43568;43.180;-0.028;2022-11-20T11:29:48;4.60;;;4.20;;
57726;SDS011;43568;43.180;-0.028;2022-11-20T11:32:15;4.13;;;3.50;;
57726;SDS011;43568;43.180;-0.028;2022-11-20T11:34:43;4.25;;;3.90;;
57726;SDS011;43568;43.180;-0.028;2022-11-20T11:37:18;4.63;;;3.30;;
57726;SDS011;43568;43.180;-0.028;2022-11-20T11:39:46;4.45;;;3.55;;
57726;SDS011;43568;43.180;-0.028;2022-11-20T11:42:13;6.53;;;3.63;;
57726;SDS011;43568;43.180;-0.028;2022-11-20T11:44:43;3.83;;;3.47;;
57726;SDS011;43568;43.180;-0.028;2022-11-20T11:47:32;3.97;;;3.55;;
57726;SDS011;43568;43.180;-0.028;2022-11-20T11:50:08;3.83;;;3.53;;
57726;SDS011;43568;43.180;-0.028;2022-11-20T12:00:32;4.53;;;3.50;;
57726;SDS011;43568;43.180;-0.028;2022-11-20T12:03:14;8.48;;;4.05;;
57726;SDS011;43568;43.180;-0.028;2022-11-20T12:05:45;5.22;;;3.70;;
57726;SDS011;43568;43.180;-0.028;2022-11-20T12:08:27;4.90;;;3.35;;
57726;SDS011;43568;43.180;-0.028;2022-11-20T12:10:56;5.47;;;3.70;;
57726;SDS011;43568;43.180;-0.028;2022-11-20T12:16:09;4.75;;;3.35;;
57726;SDS011;43568;43.180;-0.028;2022-11-20T12:18:36;4.60;;;3.63;;
57726;SDS011;43568;43.180;-0.028;2022-11-20T12:21:11;4.50;;;3.45;;
57726;SDS011;43568;43.180;-0.028;2022-11-20T12:26:13;4.68;;;3.55;;
57726;SDS011;43568;43.180;-0.028;2022-11-20T12:31:37;10.38;;;3.80;;
57726;SDS011;43568;43.180;-0.028;2022-11-20T12:34:22;5.60;;;3.60;;
57726;SDS011;43568;43.180;-0.028;2022-11-20T12:36:53;6.93;;;3.60;;
57726;SDS011;43568;43.180;-0.028;2022-11-20T12:42:14;7.38;;;3.80;;
57726;SDS011;43568;43.180;-0.028;2022-11-20T12:58:19;11.52;;;4.53;;
57726;SDS011;43568;43.180;-0.028;2022-11-20T13:00:57;9.15;;;3.85;;
57726;SDS011;43568;43.180;-0.028;2022-11-20T13:03:34;7.38;;;4.38;;
57726;SDS011;43568;43.180;-0.028;2022-11-20T13:06:05;8.25;;;3.80;;
57726;SDS011;43568;43.180;-0.028;2022-11-20T13:08:39;3.88;;;3.42;;
57726;SDS011;43568;43.180;-0.028;2022-11-20T13:11:17;4.38;;;3.08;;
57726;SDS011;43568;43.180;-0.028;2022-11-20T13:16:38;5.05;;;3.42;;
57726;SDS011;43568;43.180;-0.028;2022-11-20T13:19:15;6.05;;;3.67;;
57726;SDS011;43568;43.180;-0.028;2022-11-20T13:21:42;5.57;;;3.75;;
57726;SDS011;43568;43.180;-0.028;2022-11-20T13:24:28;5.50;;;3.75;;
57726;SDS011;43568;43.180;-0.028;2022-11-20T13:29:34;7.93;;;4.10;;
57726;SDS011;43568;43.180;-0.028;2022-11-20T13:32:34;6.22;;;3.30;;
57726;SDS011;43568;43.180;-0.028;2022-11-20T13:34:58;8.38;;;3.55;;
57726;SDS011;43568;43.180;-0.028;2022-11-20T13:39:51;4.88;;;3.22;;
57726;SDS011;43568;43.180;-0.028;2022-11-20T13:42:22;5.63;;;3.40;;
57726;SDS011;43568;43.180;-0.028;2022-11-20T13:44:52;7.88;;;3.28;;
57726;SDS011;43568;43.180;-0.028;2022-11-20T13:49:45;3.97;;;3.20;;
57726;SDS011;43568;43.180;-0.028;2022-11-20T13:57:18;3.95;;;3.08;;
57726;SDS011;43568;43.180;-0.028;2022-11-20T14:02:43;5.72;;;3.33;;
57726;SDS011;43568;43.180;-0.028;2022-11-20T14:05:20;9.38;;;3.13;;
57726;SDS011;43568;43.180;-0.028;2022-11-20T14:07:47;5.13;;;3.53;;
57726;SDS011;43568;43.180;-0.028;2022-11-20T14:10:25;5.65;;;3.50;;
57726;SDS011;43568;43.180;-0.028;2022-11-20T14:12:51;7.13;;;3.42;;
57726;SDS011;43568;43.180;-0.028;2022-11-20T14:15:30;5.78;;;3.42;;
57726;SDS011;43568;43.180;-0.028;2022-11-20T14:17:57;5.72;;;3.63;;
57726;SDS011;43568;43.180;-0.028;2022-11-20T14:20:24;5.88;;;3.83;;
57726;SDS011;43568;43.180;-0.028;2022-11-20T14:27:44;7.45;;;3.40;;
57726;SDS011;43568;43.180;-0.028;2022-11-20T14:30:14;10.07;;;4.32;;
57726;SDS011;43568;43.180;-0.028;2022-11-20T14:32:40;7.38;;;3.45;;
57726;SDS011;43568;43.180;-0.028;2022-11-20T14:35:08;4.70;;;3.35;;
57726;SDS011;43568;43.180;-0.028;2022-11-20T14:37:37;7.38;;;3.83;;
57726;SDS011;43568;43.180;-0.028;2022-11-20T14:42:29;6.72;;;3.53;;
57726;SDS011;43568;43.180;-0.028;2022-11-20T14:44:56;3.80;;;3.50;;
57726;SDS011;43568;43.180;-0.028;2022-11-20T14:47:24;4.60;;;3.53;;
57726;SDS011;43568;43.180;-0.028;2022-11-20T14:49:51;8.30;;;3.63;;
57726;SDS011;43568;43.180;-0.028;2022-11-20T14:52:19;5.60;;;3.97;;
57726;SDS011;43568;43.180;-0.028;2022-11-20T14:54:53;5.72;;;3.63;;
57726;SDS011;43568;43.180;-0.028;2022-11-20T14:57:24;3.55;;;3.17;;
57726;SDS011;43568;43.180;-0.028;2022-11-20T14:59:50;4.50;;;3.30;;
57726;SDS011;43568;43.180;-0.028;2022-11-20T15:02:16;4.43;;;3.30;;
57726;SDS011;43568;43.180;-0.028;2022-11-20T15:04:49;4.68;;;3.30;;
57726;SDS011;43568;43.180;-0.028;2022-11-20T15:07:28;3.38;;;3.05;;
57726;SDS011;43568;43.180;-0.028;2022-11-20T15:12:27;5.95;;;3.50;;
57726;SDS011;43568;43.180;-0.028;2022-11-20T15:14:53;3.53;;;3.17;;
57726;SDS011;43568;43.180;-0.028;2022-11-20T15:17:19;7.80;;;4.35;;
57726;SDS011;43568;43.180;-0.028;2022-11-20T15:19:45;9.75;;;3.97;;
57726;SDS011;43568;43.180;-0.028;2022-11-20T15:22:14;6.35;;;3.60;;
57726;SDS011;43568;43.180;-0.028;2022-11-20T15:24:43;5.25;;;3.33;;
57726;SDS011;43568;43.180;-0.028;2022-11-20T15:27:09;3.80;;;3.30;;
57726;SDS011;43568;43.180;-0.028;2022-11-20T15:29:36;9.23;;;3.67;;
57726;SDS011;43568;43.180;-0.028;2022-11-20T15:32:02;7.80;;;4.15;;
57726;SDS011;43568;43.180;-0.028;2022-11-20T15:34:28;5.25;;;3.67;;
57726;SDS011;43568;43.180;-0.028;2022-11-20T15:36:54;4.70;;;3.38;;
57726;SDS011;43568;43.180;-0.028;2022-11-20T15:39:20;7.65;;;3.75;;
57726;SDS011;43568;43.180;-0.028;2022-11-20T15:41:46;6.18;;;3.83;;
57726;SDS011;43568;43.180;-0.028;2022-11-20T15:44:12;6.80;;;4.30;;
57726;SDS011;43568;43.180;-0.028;2022-11-20T15:46:39;6.07;;;3.70;;
57726;SDS011;43568;43.180;-0.028;2022-11-20T15:49:14;6.13;;;3.85;;
57726;SDS011;43568;43.180;-0.028;2022-11-20T15:51:44;5.65;;;3.83;;
57726;SDS011;43568;43.180;-0.028;2022-11-20T15:54:15;8.43;;;4.03;;
57726;SDS011;43568;43.180;-0.028;2022-11-20T15:56:43;6.55;;;4.38;;
57726;SDS011;43568;43.180;-0.028;2022-11-20T15:59:09;8.50;;;5.10;;
57726;SDS011;43568;43.180;-0.028;2022-11-20T16:01:35;19.17;;;11.75;;